createdAt,value
2022-12-17T00:02:09.423Z,21.23
2022-12-17T00:04:55.216Z,16.58
2022-12-17T00:07:42.694Z,14.80
2022-12-17T00:10:31.713Z,13.98
2022-12-17T00:13:17.567Z,14.75
2022-12-17T00:16:11.000Z,13.23
2022-12-17T00:18:57.278Z,13.75
2022-12-17T00:21:43.045Z,13.27
2022-12-17T00:24:28.393Z,14.07
2022-12-17T00:27:14.170Z,16.83
2022-12-17T00:30:04.862Z,17.50
2022-12-17T00:32:51.491Z,14.20
2022-12-17T00:35:38.197Z,17.15
2022-12-17T00:38:24.067Z,14.23
2022-12-17T00:41:12.922Z,23.90
2022-12-17T00:44:08.239Z,16.55
2022-12-17T00:46:55.690Z,17.00
2022-12-17T00:49:41.953Z,18.35
2022-12-17T00:52:28.088Z,18.33
2022-12-17T00:55:14.214Z,14.13
2022-12-17T00:58:02.687Z,14.88
2022-12-17T01:00:51.173Z,14.32
2022-12-17T01:03:38.505Z,14.27
2022-12-17T01:06:24.690Z,16.50
2022-12-17T01:09:10.616Z,16.00
2022-12-17T01:11:59.040Z,13.60
2022-12-17T01:14:45.819Z,12.85
2022-12-17T01:17:33.124Z,13.15
2022-12-17T01:20:24.718Z,15.25
2022-12-17T01:23:18.681Z,12.63
2022-12-17T01:26:15.671Z,15.70
2022-12-17T01:29:05.419Z,13.00
2022-12-17T01:31:51.568Z,10.38
2022-12-17T01:34:37.950Z,11.27
2022-12-17T01:37:24.516Z,11.73
2022-12-17T01:40:10.136Z,10.02
2022-12-17T01:43:01.191Z,9.88
2022-12-17T01:46:03.308Z,11.27
2022-12-17T01:49:02.603Z,10.45
2022-12-17T01:51:50.032Z,10.27
2022-12-17T01:54:39.293Z,10.05
2022-12-17T01:57:26.405Z,11.48
2022-12-17T02:00:26.296Z,11.18
2022-12-17T02:03:12.271Z,9.25
2022-12-17T02:06:14.212Z,9.10
2022-12-17T02:09:08.952Z,8.27
2022-12-17T02:12:32.507Z,7.90
2022-12-17T02:15:39.970Z,8.77
2022-12-17T02:18:32.399Z,8.88
2022-12-17T02:21:25.963Z,8.73
2022-12-17T02:24:33.769Z,11.95
2022-12-17T02:27:29.622Z,10.73
2022-12-17T02:30:21.349Z,7.60
2022-12-17T02:33:11.754Z,9.38
2022-12-17T02:36:13.104Z,7.57
2022-12-17T02:39:01.708Z,7.38
2022-12-17T02:42:08.812Z,5.53
2022-12-17T02:44:59.417Z,6.22
2022-12-17T02:47:50.467Z,5.95
2022-12-17T02:50:36.662Z,6.57
2022-12-17T02:53:23.467Z,6.63
2022-12-17T02:56:09.605Z,5.47
2022-12-17T02:59:05.786Z,4.13
2022-12-17T03:01:57.228Z,4.75
2022-12-17T03:07:32.472Z,5.20
2022-12-17T03:10:22.892Z,5.50
2022-12-17T03:13:12.909Z,5.78
2022-12-17T03:16:01.447Z,5.18
2022-12-17T03:18:47.144Z,5.55
2022-12-17T03:21:43.046Z,4.60
2022-12-17T03:24:28.825Z,4.15
2022-12-17T03:27:14.453Z,5.25
2022-12-17T03:30:00.366Z,5.25
2022-12-17T03:32:46.260Z,5.57
2022-12-17T03:35:33.014Z,5.65
2022-12-17T03:38:26.955Z,5.88
2022-12-17T03:41:13.044Z,5.60
2022-12-17T03:43:59.248Z,6.07
2022-12-17T03:47:15.390Z,7.72
2022-12-17T03:49:56.122Z,7.50
2022-12-17T03:52:44.623Z,6.45
2022-12-17T03:55:32.607Z,6.70
2022-12-17T03:58:18.625Z,6.93
2022-12-17T04:01:16.640Z,6.88
2022-12-17T04:04:02.511Z,7.68
2022-12-17T04:06:51.390Z,10.45
2022-12-17T04:09:40.578Z,5.63
2022-12-17T04:12:26.640Z,4.10
2022-12-17T04:15:12.430Z,5.20
2022-12-17T04:17:58.327Z,5.10
2022-12-17T04:20:44.632Z,6.30
2022-12-17T04:23:30.562Z,6.78
2022-12-17T04:26:17.028Z,7.03
2022-12-17T04:29:09.097Z,6.72
2022-12-17T04:31:55.161Z,7.38
2022-12-17T04:34:45.040Z,6.68
2022-12-17T04:37:30.901Z,6.25
2022-12-17T04:40:18.002Z,6.15
2022-12-17T04:43:17.893Z,5.22
2022-12-17T04:46:08.072Z,5.50
2022-12-17T04:48:53.954Z,4.35
2022-12-17T04:51:42.797Z,8.20
2022-12-17T04:54:28.449Z,7.57
2022-12-17T04:57:16.942Z,6.90
2022-12-17T05:00:03.037Z,5.43
2022-12-17T05:02:54.106Z,6.43
2022-12-17T05:05:43.038Z,5.88
2022-12-17T05:08:29.646Z,6.13
2022-12-17T05:11:21.831Z,6.82
2022-12-17T05:14:07.675Z,5.40
2022-12-17T05:16:55.735Z,5.57
2022-12-17T05:19:41.774Z,5.78
2022-12-17T05:22:27.848Z,6.43
2022-12-17T05:25:16.105Z,6.45
2022-12-17T05:28:02.515Z,8.05
2022-12-17T05:30:57.433Z,7.28
2022-12-17T05:33:42.812Z,6.55
2022-12-17T05:36:28.649Z,7.75
2022-12-17T05:39:17.661Z,8.13
2022-12-17T05:42:03.632Z,7.00
2022-12-17T05:44:53.286Z,8.13
2022-12-17T05:47:39.594Z,12.40
2022-12-17T05:50:25.738Z,9.90
2022-12-17T05:53:11.511Z,9.10
2022-12-17T05:55:57.099Z,8.85
2022-12-17T05:58:45.086Z,11.80
2022-12-17T06:01:33.439Z,9.85
2022-12-17T06:04:28.572Z,10.13
2022-12-17T06:07:14.777Z,8.77
2022-12-17T06:10:00.975Z,8.93
2022-12-17T06:12:47.835Z,10.77
2022-12-17T06:15:36.915Z,11.82
2022-12-17T06:18:22.998Z,9.10
2022-12-17T06:21:11.671Z,8.23
2022-12-17T06:23:57.297Z,8.48
2022-12-17T06:26:43.062Z,8.30
2022-12-17T06:29:30.796Z,8.05
2022-12-17T06:32:20.240Z,7.32
2022-12-17T06:35:11.513Z,6.75
2022-12-17T06:38:00.567Z,7.75
2022-12-17T06:40:46.597Z,8.48
2022-12-17T06:43:35.608Z,7.32
2022-12-17T06:46:26.647Z,7.25
2022-12-17T06:49:12.621Z,7.05
2022-12-17T06:51:58.906Z,7.85
2022-12-17T06:54:48.536Z,6.82
2022-12-17T06:57:40.807Z,7.30
2022-12-17T07:00:38.639Z,6.38
2022-12-17T07:03:27.054Z,7.55
2022-12-17T07:06:12.613Z,7.22
2022-12-17T07:09:12.280Z,7.65
2022-12-17T07:12:01.657Z,7.55
2022-12-17T07:14:50.893Z,9.10
2022-12-17T07:17:45.027Z,11.80
2022-12-17T07:20:31.061Z,8.52
2022-12-17T07:23:17.052Z,8.70
2022-12-17T07:26:03.140Z,8.95
2022-12-17T07:28:48.729Z,10.05
2022-12-17T07:31:38.420Z,8.68
2022-12-17T07:34:30.900Z,9.98
2022-12-17T07:37:20.500Z,9.82
2022-12-17T07:40:06.372Z,8.82
2022-12-17T07:42:55.228Z,9.35
2022-12-17T07:48:32.005Z,6.72
2022-12-17T07:51:21.745Z,7.03
2022-12-17T07:54:08.168Z,23.10
2022-12-17T07:57:04.571Z,12.43
2022-12-17T07:59:54.602Z,12.15
2022-12-17T08:02:40.801Z,12.38
2022-12-17T08:05:29.626Z,10.13
2022-12-17T08:08:27.181Z,16.98
2022-12-17T08:11:15.767Z,17.75
2022-12-17T08:14:01.719Z,13.43
2022-12-17T08:16:47.830Z,15.13
2022-12-17T08:19:37.315Z,11.07
2022-12-17T08:22:23.508Z,11.13
2022-12-17T08:25:09.672Z,9.18
2022-12-17T08:27:58.771Z,9.70
2022-12-17T08:30:44.993Z,9.32
2022-12-17T08:33:33.729Z,9.68
2022-12-17T08:36:22.589Z,10.85
2022-12-17T08:39:14.033Z,11.85
2022-12-17T08:42:04.309Z,10.95
2022-12-17T08:44:50.551Z,10.18
2022-12-17T08:47:37.040Z,11.82
2022-12-17T08:50:28.117Z,14.88
2022-12-17T08:53:20.137Z,12.73
2022-12-17T08:56:08.435Z,13.05
2022-12-17T08:58:59.286Z,13.55
2022-12-17T09:01:46.162Z,16.38
2022-12-17T09:04:32.022Z,14.93
2022-12-17T09:07:19.273Z,15.13
2022-12-17T09:10:11.001Z,15.25
2022-12-17T09:13:02.686Z,19.63
2022-12-17T09:15:57.926Z,17.48
2022-12-17T09:18:43.828Z,16.67
2022-12-17T09:21:32.319Z,17.10
2022-12-17T09:24:20.712Z,20.58
2022-12-17T09:27:06.627Z,14.02
2022-12-17T09:29:52.329Z,16.73
2022-12-17T09:32:38.595Z,14.15
2022-12-17T09:35:24.655Z,14.07
2022-12-17T09:38:17.571Z,10.90
2022-12-17T09:41:32.451Z,9.45
2022-12-17T09:44:34.760Z,11.13
2022-12-17T09:47:58.906Z,11.82
2022-12-17T09:50:47.815Z,11.38
2022-12-17T09:54:01.379Z,11.95
2022-12-17T09:56:50.864Z,12.10
2022-12-17T09:59:45.972Z,12.48
2022-12-17T10:02:45.426Z,13.32
2022-12-17T10:05:52.383Z,17.60
2022-12-17T10:08:41.070Z,15.68
2022-12-17T10:11:47.395Z,17.80
2022-12-17T10:14:41.549Z,21.92
2022-12-17T10:17:42.687Z,19.70
2022-12-17T10:21:12.151Z,27.67
2022-12-17T10:23:59.617Z,17.00
2022-12-17T10:26:52.571Z,19.15
2022-12-17T10:30:04.992Z,18.00
2022-12-17T10:32:50.894Z,16.20
2022-12-17T10:35:41.370Z,16.90
2022-12-17T10:38:31.856Z,16.08
2022-12-17T10:41:23.582Z,17.42
2022-12-17T10:44:11.937Z,36.72
2022-12-17T10:46:58.630Z,20.95
2022-12-17T10:49:46.517Z,16.15
2022-12-17T10:52:50.763Z,16.50
2022-12-17T10:55:45.940Z,19.10
2022-12-17T10:58:50.744Z,15.05
2022-12-17T11:01:43.960Z,17.70
2022-12-17T11:05:00.348Z,16.35
2022-12-17T11:13:55.449Z,14.93
2022-12-17T11:16:47.295Z,13.02
2022-12-17T11:19:50.388Z,15.20
2022-12-17T11:23:02.755Z,14.45
2022-12-17T11:26:12.159Z,17.33
2022-12-17T11:29:04.092Z,12.43
2022-12-17T11:32:26.278Z,12.52
2022-12-17T11:35:53.540Z,13.00
2022-12-17T11:38:40.414Z,13.77
2022-12-17T11:41:49.951Z,14.63
2022-12-17T11:45:17.871Z,15.55
2022-12-17T11:48:22.050Z,17.52
2022-12-17T11:51:24.219Z,15.82
2022-12-17T11:54:32.182Z,21.27
2022-12-17T11:57:52.516Z,18.48
2022-12-17T12:00:39.902Z,20.40
2022-12-17T12:03:56.009Z,22.08
2022-12-17T12:07:13.475Z,16.05
2022-12-17T12:10:20.795Z,18.05
2022-12-17T12:13:23.950Z,14.75
2022-12-17T12:16:31.902Z,15.85
2022-12-17T12:23:24.329Z,14.50
2022-12-17T12:26:51.561Z,15.57
2022-12-17T12:29:37.357Z,13.73
2022-12-17T12:32:38.375Z,13.98
2022-12-17T12:35:31.467Z,14.43
2022-12-17T12:38:20.531Z,14.48
2022-12-17T12:41:21.151Z,18.20
2022-12-17T12:44:14.262Z,17.30
2022-12-17T12:47:28.250Z,15.75
2022-12-17T12:51:06.176Z,15.23
2022-12-17T12:53:52.176Z,17.13
2022-12-17T12:56:54.737Z,12.15
2022-12-17T12:59:54.054Z,13.98
2022-12-17T13:02:41.543Z,15.57
2022-12-17T13:05:33.086Z,13.95
2022-12-17T13:08:19.851Z,14.07
2022-12-17T13:10:51.284Z,17.23
2022-12-17T13:13:18.544Z,12.90
2022-12-17T13:15:49.192Z,15.63
2022-12-17T13:18:35.426Z,17.48
2022-12-17T13:21:23.989Z,15.23
2022-12-17T13:23:51.374Z,14.27
2022-12-17T13:26:42.792Z,18.83
2022-12-17T13:32:05.921Z,15.00
2022-12-17T13:34:52.077Z,18.20
2022-12-17T13:37:29.299Z,16.13
2022-12-17T13:40:36.673Z,27.02
2022-12-17T13:43:04.337Z,13.88
2022-12-17T13:45:36.785Z,15.00
2022-12-17T13:48:29.702Z,16.95
2022-12-17T13:51:02.841Z,16.17
2022-12-17T13:53:35.564Z,16.35
2022-12-17T13:56:05.401Z,15.93
2022-12-17T13:58:33.428Z,20.65
2022-12-17T14:01:18.515Z,18.20
2022-12-17T14:04:06.363Z,19.30
2022-12-17T14:06:38.413Z,19.33
2022-12-17T14:09:06.576Z,18.00
2022-12-17T14:11:58.326Z,17.50
2022-12-17T14:14:34.751Z,16.73
2022-12-17T14:17:19.639Z,15.88
2022-12-17T14:19:49.213Z,14.73
2022-12-17T14:22:29.356Z,18.33
2022-12-17T14:24:59.022Z,20.38
2022-12-17T14:27:38.230Z,16.92
2022-12-17T14:30:34.863Z,20.83
2022-12-17T14:33:02.968Z,25.08
2022-12-17T14:35:39.246Z,26.70
2022-12-17T14:38:37.098Z,26.23
2022-12-17T14:41:31.216Z,24.83
2022-12-17T14:44:00.573Z,23.65
2022-12-17T14:46:30.126Z,23.90
2022-12-17T14:49:02.272Z,25.65
2022-12-17T14:51:43.715Z,26.95
2022-12-17T14:54:26.321Z,32.97
2022-12-17T14:56:58.383Z,32.35
2022-12-17T14:59:38.299Z,31.48
2022-12-17T15:02:23.784Z,29.77
2022-12-17T15:04:54.580Z,26.92
2022-12-17T15:07:35.476Z,32.65
2022-12-17T15:10:10.683Z,32.50
2022-12-17T15:12:39.762Z,26.92
2022-12-17T15:15:14.592Z,24.80
2022-12-17T15:17:42.510Z,26.33
2022-12-17T15:20:21.188Z,25.20
2022-12-17T15:22:57.093Z,29.05
2022-12-17T15:25:24.470Z,24.70
2022-12-17T15:27:58.336Z,20.98
2022-12-17T15:30:26.461Z,22.52
2022-12-17T15:32:56.307Z,56.88
2022-12-17T15:35:28.237Z,28.73
2022-12-17T15:37:55.531Z,30.65
2022-12-17T15:40:26.285Z,34.15
2022-12-17T15:43:12.535Z,31.83
2022-12-17T15:45:51.527Z,32.58
2022-12-17T15:51:19.424Z,34.40
2022-12-17T15:53:48.500Z,27.15
2022-12-17T15:56:21.938Z,32.67
2022-12-17T15:58:56.592Z,26.73
2022-12-17T16:01:24.137Z,24.05
2022-12-17T16:04:01.008Z,26.98
2022-12-17T16:06:28.923Z,26.27
2022-12-17T16:08:59.231Z,23.08
2022-12-17T16:11:26.891Z,34.15
2022-12-17T16:13:58.215Z,28.92
2022-12-17T16:16:29.564Z,28.27
2022-12-17T16:19:00.191Z,34.22
2022-12-17T16:21:31.140Z,33.53
2022-12-17T16:23:59.001Z,28.50
2022-12-17T16:26:47.647Z,38.72
2022-12-17T16:29:15.858Z,26.17
2022-12-17T16:31:49.526Z,25.52
2022-12-17T16:34:19.388Z,26.40
2022-12-17T16:36:46.539Z,24.92
2022-12-17T16:39:24.290Z,23.45
2022-12-17T16:41:51.621Z,26.13
2022-12-17T16:44:19.395Z,24.83
2022-12-17T16:46:46.649Z,30.33
2022-12-17T16:49:24.571Z,29.92
2022-12-17T16:51:54.798Z,29.90
2022-12-17T16:54:33.209Z,30.25
2022-12-17T16:57:02.450Z,24.40
2022-12-17T16:59:32.121Z,23.02
2022-12-17T17:02:00.470Z,25.13
2022-12-17T17:04:29.538Z,22.92
2022-12-17T17:07:00.348Z,19.90
2022-12-17T17:09:32.974Z,16.88
2022-12-17T17:12:00.729Z,12.13
2022-12-17T17:14:31.166Z,22.15
2022-12-17T17:16:58.911Z,16.30
2022-12-17T17:19:27.817Z,24.25
2022-12-17T17:21:58.041Z,21.75
2022-12-17T17:24:28.080Z,20.73
2022-12-17T17:27:05.816Z,19.92
2022-12-17T17:29:33.094Z,15.32
2022-12-17T17:32:11.344Z,25.20
2022-12-17T17:34:43.776Z,27.05
2022-12-17T17:37:15.638Z,25.77
2022-12-17T17:39:43.218Z,26.17
2022-12-17T17:42:16.807Z,24.88
2022-12-17T17:44:48.894Z,28.27
2022-12-17T17:47:16.520Z,34.25
2022-12-17T17:49:45.168Z,28.92
2022-12-17T17:52:14.812Z,33.83
2022-12-17T17:54:42.883Z,31.17
2022-12-17T17:57:10.998Z,34.05
2022-12-17T17:59:39.640Z,30.00
2022-12-17T18:02:11.017Z,33.53
2022-12-17T18:04:38.498Z,28.45
2022-12-17T18:07:26.153Z,29.08
2022-12-17T18:09:54.882Z,30.50
2022-12-17T18:12:41.190Z,24.88
2022-12-17T18:15:18.149Z,26.38
2022-12-17T18:17:49.487Z,27.73
2022-12-17T18:20:37.522Z,32.10
2022-12-17T18:23:08.367Z,23.80
2022-12-17T18:25:37.653Z,34.88
2022-12-17T18:28:05.444Z,21.73
2022-12-17T18:30:32.892Z,22.10
2022-12-17T18:33:00.288Z,22.52
2022-12-17T18:35:30.777Z,22.02
2022-12-17T18:37:58.430Z,22.17
2022-12-17T18:40:33.768Z,25.20
2022-12-17T18:43:19.994Z,34.25
2022-12-17T18:45:53.904Z,24.02
2022-12-17T18:48:22.183Z,22.92
2022-12-17T18:50:49.676Z,32.95
2022-12-17T18:53:18.947Z,34.83
2022-12-17T18:55:46.044Z,31.60
2022-12-17T18:58:15.818Z,40.80
2022-12-17T19:00:45.940Z,35.70
2022-12-17T19:03:18.847Z,32.78
2022-12-17T19:05:53.922Z,38.65
2022-12-17T19:08:22.486Z,33.63
2022-12-17T19:10:52.948Z,34.00
2022-12-17T19:13:27.599Z,39.88
2022-12-17T19:15:54.847Z,31.45
2022-12-17T19:18:22.391Z,32.80
2022-12-17T19:20:57.851Z,34.13
2022-12-17T19:23:36.797Z,29.25
2022-12-17T19:26:16.952Z,34.65
2022-12-17T19:28:58.618Z,27.85
2022-12-17T19:31:29.382Z,32.47
2022-12-17T19:34:02.931Z,36.70
2022-12-17T19:36:37.106Z,35.30
2022-12-17T19:39:07.559Z,31.67
2022-12-17T19:41:35.297Z,39.53
2022-12-17T19:44:08.508Z,33.45
2022-12-17T19:46:39.474Z,28.50
2022-12-17T19:49:11.102Z,32.47
2022-12-17T19:51:47.291Z,43.40
2022-12-17T19:54:18.978Z,35.83
2022-12-17T19:56:46.376Z,31.45
2022-12-17T19:59:17.393Z,50.97
2022-12-17T20:02:20.447Z,48.83
2022-12-17T20:04:48.320Z,40.45
2022-12-17T20:07:18.283Z,29.88
2022-12-17T20:09:52.884Z,28.45
2022-12-17T20:12:20.150Z,46.00
2022-12-17T20:14:47.902Z,42.47
2022-12-17T20:17:15.026Z,39.55
2022-12-17T20:19:44.852Z,45.35
2022-12-17T20:22:12.108Z,26.25
2022-12-17T20:24:47.055Z,31.20
2022-12-17T20:27:14.176Z,38.20
2022-12-17T20:29:50.383Z,29.25
2022-12-17T20:32:19.916Z,32.00
2022-12-17T20:34:47.946Z,28.75
2022-12-17T20:37:18.508Z,35.55
2022-12-17T20:39:48.798Z,30.13
2022-12-17T20:42:28.568Z,44.17
2022-12-17T20:45:06.374Z,48.65
2022-12-17T20:47:33.710Z,29.90
2022-12-17T20:50:02.866Z,33.95
2022-12-17T20:52:35.383Z,31.92
2022-12-17T20:55:05.519Z,32.78
2022-12-17T20:57:32.662Z,28.92
2022-12-17T21:00:02.594Z,27.65
2022-12-17T21:02:32.728Z,31.73
2022-12-17T21:05:00.430Z,27.30
2022-12-17T21:07:35.201Z,25.55
2022-12-17T21:10:04.876Z,29.65
2022-12-17T21:12:53.453Z,24.90
2022-12-17T21:15:24.413Z,22.33
2022-12-17T21:17:53.784Z,25.60
2022-12-17T21:20:22.382Z,21.48
2022-12-17T21:22:50.141Z,25.33
2022-12-17T21:25:17.931Z,28.17
2022-12-17T21:27:45.128Z,24.98
2022-12-17T21:30:22.188Z,21.45
2022-12-17T21:33:00.054Z,26.73
2022-12-17T21:35:32.300Z,29.20
2022-12-17T21:38:03.858Z,24.90
2022-12-17T21:40:33.897Z,29.55
2022-12-17T21:43:05.721Z,29.50
2022-12-17T21:45:44.254Z,32.90
2022-12-17T21:48:15.710Z,28.55
2022-12-17T21:50:46.566Z,32.33
2022-12-17T21:53:24.497Z,32.90
2022-12-17T21:55:52.973Z,38.88
2022-12-17T21:58:22.543Z,39.53
2022-12-17T22:00:59.085Z,37.33
2022-12-17T22:03:33.438Z,34.78
2022-12-17T22:06:13.586Z,40.72
2022-12-17T22:08:42.805Z,43.83
2022-12-17T22:11:17.042Z,34.30
2022-12-17T22:14:08.840Z,41.63
2022-12-17T22:16:47.470Z,39.95
2022-12-17T22:19:25.441Z,39.22
2022-12-17T22:21:56.998Z,37.10
2022-12-17T22:24:25.761Z,39.00
2022-12-17T22:27:02.765Z,36.08
2022-12-17T22:29:51.264Z,33.67
2022-12-17T22:32:45.175Z,33.88
2022-12-17T22:36:13.494Z,35.83
2022-12-17T22:42:47.538Z,31.25
2022-12-17T22:44:30.355Z,33.40
2022-12-17T22:44:36.666Z,46.17
2022-12-17T22:46:33.807Z,46.95
2022-12-17T22:49:02.284Z,48.67
2022-12-17T22:51:40.079Z,49.83
2022-12-17T22:54:15.346Z,44.05
2022-12-17T22:57:34.698Z,42.58
2022-12-17T22:59:31.304Z,41.83
2022-12-17T23:02:07.431Z,33.25
2022-12-17T23:04:40.203Z,44.65
2022-12-17T23:07:07.945Z,30.88
2022-12-17T23:09:50.250Z,47.50
2022-12-17T23:12:38.768Z,47.88
2022-12-17T23:15:06.995Z,37.28
2022-12-17T23:17:43.795Z,44.10
2022-12-17T23:20:11.683Z,42.00
2022-12-17T23:22:38.743Z,39.70
2022-12-17T23:25:06.817Z,35.10
2022-12-17T23:27:40.690Z,32.38
2022-12-17T23:30:08.873Z,32.50
2022-12-17T23:32:36.832Z,27.13
2022-12-17T23:35:07.807Z,28.00
2022-12-17T23:37:40.132Z,32.10
2022-12-17T23:40:12.847Z,28.27
2022-12-17T23:42:49.403Z,26.25
2022-12-17T23:45:16.492Z,27.58
2022-12-17T23:47:56.051Z,20.08
2022-12-17T23:50:24.073Z,22.65
2022-12-17T23:52:52.370Z,21.55
2022-12-17T23:55:25.327Z,19.00
2022-12-17T23:57:56.588Z,21.25
